sensor_id;sensor_type;location;lat;lon;timestamp;P1;durP1;ratioP1;P2;durP2;ratioP2
37495;SDS011;23346;52.088;4.746;2023-04-24T00:00:56;0.83;;;0.67;;
37495;SDS011;23346;52.088;4.746;2023-04-24T00:03:23;0.20;;;0.20;;
37495;SDS011;23346;52.088;4.746;2023-04-24T00:05:49;0.20;;;0.20;;
37495;SDS011;23346;52.088;4.746;2023-04-24T00:08:17;0.70;;;0.70;;
37495;SDS011;23346;52.088;4.746;2023-04-24T00:10:43;0.17;;;0.17;;
37495;SDS011;23346;52.088;4.746;2023-04-24T00:13:09;0.20;;;0.20;;
37495;SDS011;23346;52.088;4.746;2023-04-24T00:15:35;0.10;;;0.10;;
37495;SDS011;23346;52.088;4.746;2023-04-24T00:18:01;0.30;;;0.30;;
37495;SDS011;23346;52.088;4.746;2023-04-24T00:20:27;0.20;;;0.20;;
37495;SDS011;23346;52.088;4.746;2023-04-24T00:23:00;0.20;;;0.20;;
37495;SDS011;23346;52.088;4.746;2023-04-24T00:25:26;0.20;;;0.20;;
37495;SDS011;23346;52.088;4.746;2023-04-24T00:27:52;0.20;;;0.20;;
37495;SDS011;23346;52.088;4.746;2023-04-24T00:30:18;0.17;;;0.17;;
37495;SDS011;23346;52.088;4.746;2023-04-24T00:32:44;0.30;;;0.30;;
37495;SDS011;23346;52.088;4.746;2023-04-24T00:35:10;0.40;;;0.40;;
37495;SDS011;23346;52.088;4.746;2023-04-24T00:37:36;0.10;;;0.10;;
37495;SDS011;23346;52.088;4.746;2023-04-24T00:40:02;0.10;;;0.10;;
37495;SDS011;23346;52.088;4.746;2023-04-24T00:42:28;0.20;;;0.20;;
37495;SDS011;23346;52.088;4.746;2023-04-24T00:44:54;0.10;;;0.10;;
37495;SDS011;23346;52.088;4.746;2023-04-24T00:47:21;0.20;;;0.20;;
37495;SDS011;23346;52.088;4.746;2023-04-24T00:49:47;0.17;;;0.17;;
37495;SDS011;23346;52.088;4.746;2023-04-24T00:52:13;0.20;;;0.20;;
37495;SDS011;23346;52.088;4.746;2023-04-24T00:54:42;0.30;;;0.30;;
37495;SDS011;23346;52.088;4.746;2023-04-24T00:57:08;0.20;;;0.20;;
37495;SDS011;23346;52.088;4.746;2023-04-24T00:59:34;0.20;;;0.20;;
37495;SDS011;23346;52.088;4.746;2023-04-24T01:02:01;0.30;;;0.30;;
37495;SDS011;23346;52.088;4.746;2023-04-24T01:04:28;0.10;;;0.10;;
37495;SDS011;23346;52.088;4.746;2023-04-24T01:06:54;0.20;;;0.20;;
37495;SDS011;23346;52.088;4.746;2023-04-24T01:09:21;0.10;;;0.10;;
37495;SDS011;23346;52.088;4.746;2023-04-24T01:11:48;0.10;;;0.10;;
37495;SDS011;23346;52.088;4.746;2023-04-24T01:14:15;0.30;;;0.30;;
37495;SDS011;23346;52.088;4.746;2023-04-24T01:16:41;0.10;;;0.10;;
37495;SDS011;23346;52.088;4.746;2023-04-24T01:19:07;0.10;;;0.10;;
37495;SDS011;23346;52.088;4.746;2023-04-24T01:21:36;0.67;;;0.50;;
37495;SDS011;23346;52.088;4.746;2023-04-24T01:24:06;0.10;;;0.10;;
37495;SDS011;23346;52.088;4.746;2023-04-24T01:26:32;0.40;;;0.40;;
37495;SDS011;23346;52.088;4.746;2023-04-24T01:28:58;0.10;;;0.10;;
37495;SDS011;23346;52.088;4.746;2023-04-24T01:31:24;0.20;;;0.20;;
37495;SDS011;23346;52.088;4.746;2023-04-24T01:33:50;0.10;;;0.10;;
37495;SDS011;23346;52.088;4.746;2023-04-24T01:36:16;0.20;;;0.20;;
37495;SDS011;23346;52.088;4.746;2023-04-24T01:38:43;0.20;;;0.20;;
37495;SDS011;23346;52.088;4.746;2023-04-24T01:41:09;0.10;;;0.10;;
37495;SDS011;23346;52.088;4.746;2023-04-24T01:43:35;0.33;;;0.33;;
37495;SDS011;23346;52.088;4.746;2023-04-24T01:46:02;0.47;;;0.47;;
37495;SDS011;23346;52.088;4.746;2023-04-24T01:48:28;0.10;;;0.10;;
37495;SDS011;23346;52.088;4.746;2023-04-24T01:50:55;0.40;;;0.30;;
37495;SDS011;23346;52.088;4.746;2023-04-24T01:53:22;0.10;;;0.10;;
37495;SDS011;23346;52.088;4.746;2023-04-24T01:55:48;0.20;;;0.20;;
37495;SDS011;23346;52.088;4.746;2023-04-24T01:58:14;0.10;;;0.10;;
37495;SDS011;23346;52.088;4.746;2023-04-24T02:00:40;0.33;;;0.33;;
37495;SDS011;23346;52.088;4.746;2023-04-24T02:03:06;0.30;;;0.30;;
37495;SDS011;23346;52.088;4.746;2023-04-24T02:05:32;0.30;;;0.30;;
37495;SDS011;23346;52.088;4.746;2023-04-24T02:07:58;0.47;;;0.47;;
37495;SDS011;23346;52.088;4.746;2023-04-24T02:10:24;0.47;;;0.47;;
37495;SDS011;23346;52.088;4.746;2023-04-24T02:12:50;0.30;;;0.30;;
37495;SDS011;23346;52.088;4.746;2023-04-24T02:15:16;0.20;;;0.20;;
37495;SDS011;23346;52.088;4.746;2023-04-24T02:17:43;0.40;;;0.40;;
37495;SDS011;23346;52.088;4.746;2023-04-24T02:20:09;0.57;;;0.57;;
37495;SDS011;23346;52.088;4.746;2023-04-24T02:22:35;0.20;;;0.20;;
37495;SDS011;23346;52.088;4.746;2023-04-24T02:25:01;0.73;;;0.40;;
37495;SDS011;23346;52.088;4.746;2023-04-24T02:27:27;1.53;;;1.43;;
37495;SDS011;23346;52.088;4.746;2023-04-24T02:29:53;0.40;;;0.40;;
37495;SDS011;23346;52.088;4.746;2023-04-24T02:32:20;0.47;;;0.47;;
37495;SDS011;23346;52.088;4.746;2023-04-24T02:34:46;0.10;;;0.10;;
37495;SDS011;23346;52.088;4.746;2023-04-24T02:37:12;2.57;;;1.00;;
37495;SDS011;23346;52.088;4.746;2023-04-24T02:39:37;0.37;;;0.37;;
37495;SDS011;23346;52.088;4.746;2023-04-24T02:42:03;0.10;;;0.10;;
37495;SDS011;23346;52.088;4.746;2023-04-24T02:44:30;0.20;;;0.20;;
37495;SDS011;23346;52.088;4.746;2023-04-24T02:46:56;0.10;;;0.10;;
37495;SDS011;23346;52.088;4.746;2023-04-24T02:49:22;0.10;;;0.10;;
37495;SDS011;23346;52.088;4.746;2023-04-24T02:51:48;0.40;;;0.40;;
37495;SDS011;23346;52.088;4.746;2023-04-24T02:54:14;1.07;;;0.40;;
37495;SDS011;23346;52.088;4.746;2023-04-24T02:56:40;0.27;;;0.27;;
37495;SDS011;23346;52.088;4.746;2023-04-24T02:59:05;0.63;;;0.63;;
37495;SDS011;23346;52.088;4.746;2023-04-24T03:01:31;0.30;;;0.30;;
37495;SDS011;23346;52.088;4.746;2023-04-24T03:03:57;0.93;;;0.93;;
37495;SDS011;23346;52.088;4.746;2023-04-24T03:06:23;0.50;;;0.50;;
37495;SDS011;23346;52.088;4.746;2023-04-24T03:08:49;0.20;;;0.20;;
37495;SDS011;23346;52.088;4.746;2023-04-24T03:11:15;0.10;;;0.10;;
37495;SDS011;23346;52.088;4.746;2023-04-24T03:13:41;0.60;;;0.60;;
37495;SDS011;23346;52.088;4.746;2023-04-24T03:16:07;0.10;;;0.10;;
37495;SDS011;23346;52.088;4.746;2023-04-24T03:18:33;0.20;;;0.20;;
37495;SDS011;23346;52.088;4.746;2023-04-24T03:20:59;0.10;;;0.10;;
37495;SDS011;23346;52.088;4.746;2023-04-24T03:23:26;0.20;;;0.20;;
37495;SDS011;23346;52.088;4.746;2023-04-24T03:25:52;0.10;;;0.10;;
37495;SDS011;23346;52.088;4.746;2023-04-24T03:28:18;0.20;;;0.20;;
37495;SDS011;23346;52.088;4.746;2023-04-24T03:30:44;0.10;;;0.10;;
37495;SDS011;23346;52.088;4.746;2023-04-24T03:33:10;0.10;;;0.10;;
37495;SDS011;23346;52.088;4.746;2023-04-24T03:35:36;0.20;;;0.20;;
37495;SDS011;23346;52.088;4.746;2023-04-24T03:38:02;0.33;;;0.33;;
37495;SDS011;23346;52.088;4.746;2023-04-24T03:40:29;0.20;;;0.20;;
37495;SDS011;23346;52.088;4.746;2023-04-24T03:42:55;0.10;;;0.10;;
37495;SDS011;23346;52.088;4.746;2023-04-24T03:45:21;0.10;;;0.10;;
37495;SDS011;23346;52.088;4.746;2023-04-24T03:47:47;0.10;;;0.10;;
37495;SDS011;23346;52.088;4.746;2023-04-24T03:50:13;0.20;;;0.20;;
37495;SDS011;23346;52.088;4.746;2023-04-24T03:52:39;0.13;;;0.13;;
37495;SDS011;23346;52.088;4.746;2023-04-24T03:55:05;0.10;;;0.10;;
37495;SDS011;23346;52.088;4.746;2023-04-24T03:57:31;0.10;;;0.10;;
37495;SDS011;23346;52.088;4.746;2023-04-24T03:59:57;0.20;;;0.20;;
37495;SDS011;23346;52.088;4.746;2023-04-24T04:02:23;0.10;;;0.10;;
37495;SDS011;23346;52.088;4.746;2023-04-24T04:04:49;0.63;;;0.20;;
37495;SDS011;23346;52.088;4.746;2023-04-24T04:07:15;0.20;;;0.20;;
37495;SDS011;23346;52.088;4.746;2023-04-24T04:09:41;0.10;;;0.10;;
37495;SDS011;23346;52.088;4.746;2023-04-24T04:12:07;0.10;;;0.10;;
37495;SDS011;23346;52.088;4.746;2023-04-24T04:14:33;0.30;;;0.30;;
37495;SDS011;23346;52.088;4.746;2023-04-24T04:16:59;0.20;;;0.20;;
37495;SDS011;23346;52.088;4.746;2023-04-24T04:19:26;0.10;;;0.10;;
37495;SDS011;23346;52.088;4.746;2023-04-24T04:21:52;0.10;;;0.10;;
37495;SDS011;23346;52.088;4.746;2023-04-24T04:24:20;0.67;;;0.30;;
37495;SDS011;23346;52.088;4.746;2023-04-24T04:26:47;0.20;;;0.20;;
37495;SDS011;23346;52.088;4.746;2023-04-24T04:29:16;0.10;;;0.10;;
37495;SDS011;23346;52.088;4.746;2023-04-24T04:31:43;0.40;;;0.40;;
37495;SDS011;23346;52.088;4.746;2023-04-24T04:34:09;0.20;;;0.20;;
37495;SDS011;23346;52.088;4.746;2023-04-24T04:36:36;0.67;;;0.67;;
37495;SDS011;23346;52.088;4.746;2023-04-24T04:39:04;0.10;;;0.10;;
37495;SDS011;23346;52.088;4.746;2023-04-24T04:41:30;0.20;;;0.20;;
37495;SDS011;23346;52.088;4.746;2023-04-24T04:43:57;0.20;;;0.20;;
37495;SDS011;23346;52.088;4.746;2023-04-24T04:46:23;0.10;;;0.10;;
37495;SDS011;23346;52.088;4.746;2023-04-24T04:48:51;0.10;;;0.10;;
37495;SDS011;23346;52.088;4.746;2023-04-24T04:51:17;0.13;;;0.13;;
37495;SDS011;23346;52.088;4.746;2023-04-24T04:53:42;2.43;;;0.40;;
37495;SDS011;23346;52.088;4.746;2023-04-24T04:56:08;0.10;;;0.10;;
37495;SDS011;23346;52.088;4.746;2023-04-24T04:58:34;0.20;;;0.20;;
37495;SDS011;23346;52.088;4.746;2023-04-24T05:01:00;0.10;;;0.10;;
37495;SDS011;23346;52.088;4.746;2023-04-24T05:03:27;0.50;;;0.50;;
37495;SDS011;23346;52.088;4.746;2023-04-24T05:05:53;0.30;;;0.30;;
37495;SDS011;23346;52.088;4.746;2023-04-24T05:08:19;1.00;;;1.00;;
37495;SDS011;23346;52.088;4.746;2023-04-24T05:10:45;0.20;;;0.20;;
37495;SDS011;23346;52.088;4.746;2023-04-24T05:13:11;0.17;;;0.17;;
37495;SDS011;23346;52.088;4.746;2023-04-24T05:15:37;0.10;;;0.10;;
37495;SDS011;23346;52.088;4.746;2023-04-24T05:18:03;0.20;;;0.20;;
37495;SDS011;23346;52.088;4.746;2023-04-24T05:20:29;1.23;;;0.30;;
37495;SDS011;23346;52.088;4.746;2023-04-24T05:22:55;0.40;;;0.40;;
37495;SDS011;23346;52.088;4.746;2023-04-24T05:25:21;0.43;;;0.43;;
37495;SDS011;23346;52.088;4.746;2023-04-24T05:27:47;0.40;;;0.40;;
37495;SDS011;23346;52.088;4.746;2023-04-24T05:30:13;0.37;;;0.37;;
37495;SDS011;23346;52.088;4.746;2023-04-24T05:32:39;0.30;;;0.30;;
37495;SDS011;23346;52.088;4.746;2023-04-24T05:35:05;0.20;;;0.20;;
37495;SDS011;23346;52.088;4.746;2023-04-24T05:37:31;0.63;;;0.50;;
37495;SDS011;23346;52.088;4.746;2023-04-24T05:39:57;0.60;;;0.60;;
37495;SDS011;23346;52.088;4.746;2023-04-24T05:42:23;2.97;;;1.33;;
37495;SDS011;23346;52.088;4.746;2023-04-24T05:44:49;1.57;;;1.50;;
37495;SDS011;23346;52.088;4.746;2023-04-24T05:47:15;0.83;;;0.83;;
37495;SDS011;23346;52.088;4.746;2023-04-24T05:49:41;1.37;;;1.17;;
37495;SDS011;23346;52.088;4.746;2023-04-24T05:52:07;0.93;;;0.93;;
37495;SDS011;23346;52.088;4.746;2023-04-24T05:54:34;0.60;;;0.60;;
37495;SDS011;23346;52.088;4.746;2023-04-24T05:57:00;1.43;;;1.33;;
37495;SDS011;23346;52.088;4.746;2023-04-24T05:59:29;0.93;;;0.93;;
37495;SDS011;23346;52.088;4.746;2023-04-24T06:01:55;0.40;;;0.40;;
37495;SDS011;23346;52.088;4.746;2023-04-24T06:04:21;1.93;;;1.83;;
37495;SDS011;23346;52.088;4.746;2023-04-24T06:06:47;3.37;;;3.03;;
37495;SDS011;23346;52.088;4.746;2023-04-24T06:09:15;0.80;;;0.80;;
37495;SDS011;23346;52.088;4.746;2023-04-24T06:11:42;0.30;;;0.30;;
37495;SDS011;23346;52.088;4.746;2023-04-24T06:14:08;1.63;;;1.00;;
37495;SDS011;23346;52.088;4.746;2023-04-24T06:16:34;1.47;;;0.83;;
37495;SDS011;23346;52.088;4.746;2023-04-24T06:19:00;2.30;;;1.40;;
37495;SDS011;23346;52.088;4.746;2023-04-24T06:21:26;2.90;;;2.00;;
37495;SDS011;23346;52.088;4.746;2023-04-24T06:23:52;1.60;;;1.23;;
37495;SDS011;23346;52.088;4.746;2023-04-24T06:26:18;3.10;;;0.70;;
37495;SDS011;23346;52.088;4.746;2023-04-24T06:28:44;2.73;;;1.47;;
37495;SDS011;23346;52.088;4.746;2023-04-24T06:31:10;1.20;;;1.07;;
37495;SDS011;23346;52.088;4.746;2023-04-24T06:33:36;5.23;;;3.47;;
37495;SDS011;23346;52.088;4.746;2023-04-24T06:36:02;1.27;;;1.17;;
37495;SDS011;23346;52.088;4.746;2023-04-24T06:38:29;13.57;;;3.43;;
37495;SDS011;23346;52.088;4.746;2023-04-24T06:40:54;0.40;;;0.40;;
37495;SDS011;23346;52.088;4.746;2023-04-24T06:43:20;0.63;;;0.63;;
37495;SDS011;23346;52.088;4.746;2023-04-24T06:45:46;0.83;;;0.83;;
37495;SDS011;23346;52.088;4.746;2023-04-24T06:48:12;0.50;;;0.50;;
37495;SDS011;23346;52.088;4.746;2023-04-24T06:50:38;1.03;;;1.00;;
37495;SDS011;23346;52.088;4.746;2023-04-24T06:53:04;0.63;;;0.63;;
37495;SDS011;23346;52.088;4.746;2023-04-24T06:55:30;0.80;;;0.80;;
37495;SDS011;23346;52.088;4.746;2023-04-24T06:57:56;0.50;;;0.50;;
37495;SDS011;23346;52.088;4.746;2023-04-24T07:00:22;0.20;;;0.20;;
37495;SDS011;23346;52.088;4.746;2023-04-24T07:02:49;1.40;;;1.30;;
37495;SDS011;23346;52.088;4.746;2023-04-24T07:05:15;0.23;;;0.23;;
37495;SDS011;23346;52.088;4.746;2023-04-24T07:07:44;1.90;;;1.37;;
37495;SDS011;23346;52.088;4.746;2023-04-24T07:10:11;0.60;;;0.60;;
37495;SDS011;23346;52.088;4.746;2023-04-24T07:12:37;3.30;;;1.20;;
37495;SDS011;23346;52.088;4.746;2023-04-24T07:15:05;0.50;;;0.50;;
37495;SDS011;23346;52.088;4.746;2023-04-24T07:17:31;0.33;;;0.33;;
37495;SDS011;23346;52.088;4.746;2023-04-24T07:19:57;0.23;;;0.23;;
37495;SDS011;23346;52.088;4.746;2023-04-24T07:22:23;0.33;;;0.33;;
37495;SDS011;23346;52.088;4.746;2023-04-24T07:24:49;0.43;;;0.43;;
37495;SDS011;23346;52.088;4.746;2023-04-24T07:27:15;0.70;;;0.70;;
37495;SDS011;23346;52.088;4.746;2023-04-24T07:29:41;0.47;;;0.47;;
37495;SDS011;23346;52.088;4.746;2023-04-24T07:32:07;7.40;;;2.73;;
37495;SDS011;23346;52.088;4.746;2023-04-24T07:34:33;2.07;;;1.33;;
37495;SDS011;23346;52.088;4.746;2023-04-24T07:36:59;0.40;;;0.40;;
37495;SDS011;23346;52.088;4.746;2023-04-24T07:39:25;1.43;;;1.10;;
37495;SDS011;23346;52.088;4.746;2023-04-24T07:41:51;0.90;;;0.90;;
37495;SDS011;23346;52.088;4.746;2023-04-24T07:44:17;21.80;;;2.80;;
37495;SDS011;23346;52.088;4.746;2023-04-24T07:46:43;0.47;;;0.47;;
37495;SDS011;23346;52.088;4.746;2023-04-24T07:49:09;1.37;;;0.77;;
37495;SDS011;23346;52.088;4.746;2023-04-24T07:51:35;0.73;;;0.73;;
37495;SDS011;23346;52.088;4.746;2023-04-24T07:54:03;0.70;;;0.70;;
37495;SDS011;23346;52.088;4.746;2023-04-24T07:56:31;0.63;;;0.63;;
37495;SDS011;23346;52.088;4.746;2023-04-24T07:58:56;0.30;;;0.30;;
37495;SDS011;23346;52.088;4.746;2023-04-24T08:01:22;0.37;;;0.37;;
37495;SDS011;23346;52.088;4.746;2023-04-24T08:03:49;2.90;;;2.10;;
37495;SDS011;23346;52.088;4.746;2023-04-24T08:06:14;0.50;;;0.50;;
37495;SDS011;23346;52.088;4.746;2023-04-24T08:08:40;0.30;;;0.30;;
37495;SDS011;23346;52.088;4.746;2023-04-24T08:11:06;0.40;;;0.40;;
37495;SDS011;23346;52.088;4.746;2023-04-24T08:13:32;0.77;;;0.77;;
37495;SDS011;23346;52.088;4.746;2023-04-24T08:15:58;0.30;;;0.30;;
37495;SDS011;23346;52.088;4.746;2023-04-24T08:18:24;0.50;;;0.50;;
37495;SDS011;23346;52.088;4.746;2023-04-24T08:20:51;0.30;;;0.30;;
37495;SDS011;23346;52.088;4.746;2023-04-24T08:23:17;0.70;;;0.70;;
37495;SDS011;23346;52.088;4.746;2023-04-24T08:25:43;3.63;;;1.93;;
37495;SDS011;23346;52.088;4.746;2023-04-24T08:28:09;1.50;;;1.40;;
37495;SDS011;23346;52.088;4.746;2023-04-24T08:30:35;0.33;;;0.33;;
37495;SDS011;23346;52.088;4.746;2023-04-24T08:33:03;0.53;;;0.53;;
37495;SDS011;23346;52.088;4.746;2023-04-24T08:35:29;0.40;;;0.40;;
37495;SDS011;23346;52.088;4.746;2023-04-24T08:37:55;0.43;;;0.43;;
37495;SDS011;23346;52.088;4.746;2023-04-24T08:40:22;5.63;;;1.63;;
37495;SDS011;23346;52.088;4.746;2023-04-24T08:42:53;1.43;;;1.30;;
37495;SDS011;23346;52.088;4.746;2023-04-24T08:45:19;0.30;;;0.30;;
37495;SDS011;23346;52.088;4.746;2023-04-24T08:47:45;1.33;;;1.23;;
37495;SDS011;23346;52.088;4.746;2023-04-24T08:50:12;0.50;;;0.50;;
37495;SDS011;23346;52.088;4.746;2023-04-24T08:52:38;0.53;;;0.53;;
37495;SDS011;23346;52.088;4.746;2023-04-24T08:55:04;0.30;;;0.30;;
37495;SDS011;23346;52.088;4.746;2023-04-24T08:57:30;7.23;;;1.67;;
37495;SDS011;23346;52.088;4.746;2023-04-24T08:59:56;1.03;;;0.50;;
37495;SDS011;23346;52.088;4.746;2023-04-24T09:02:23;0.30;;;0.30;;
37495;SDS011;23346;52.088;4.746;2023-04-24T09:04:49;0.60;;;0.60;;
37495;SDS011;23346;52.088;4.746;2023-04-24T09:07:16;0.40;;;0.40;;
37495;SDS011;23346;52.088;4.746;2023-04-24T09:09:43;0.67;;;0.60;;
37495;SDS011;23346;52.088;4.746;2023-04-24T09:12:09;0.57;;;0.57;;
37495;SDS011;23346;52.088;4.746;2023-04-24T09:14:35;0.60;;;0.60;;
37495;SDS011;23346;52.088;4.746;2023-04-24T09:17:04;2.20;;;1.03;;
37495;SDS011;23346;52.088;4.746;2023-04-24T09:19:31;0.23;;;0.23;;
37495;SDS011;23346;52.088;4.746;2023-04-24T09:21:56;0.30;;;0.30;;
37495;SDS011;23346;52.088;4.746;2023-04-24T09:24:23;0.30;;;0.30;;
37495;SDS011;23346;52.088;4.746;2023-04-24T09:26:49;0.20;;;0.20;;
37495;SDS011;23346;52.088;4.746;2023-04-24T09:29:22;2.43;;;2.00;;
37495;SDS011;23346;52.088;4.746;2023-04-24T09:31:48;1.83;;;1.70;;
37495;SDS011;23346;52.088;4.746;2023-04-24T09:34:14;0.30;;;0.30;;
37495;SDS011;23346;52.088;4.746;2023-04-24T09:36:41;1.17;;;0.70;;
37495;SDS011;23346;52.088;4.746;2023-04-24T09:39:08;0.53;;;0.53;;
37495;SDS011;23346;52.088;4.746;2023-04-24T09:41:38;0.90;;;0.57;;
37495;SDS011;23346;52.088;4.746;2023-04-24T09:44:12;1.00;;;0.97;;
37495;SDS011;23346;52.088;4.746;2023-04-24T09:46:39;0.20;;;0.20;;
37495;SDS011;23346;52.088;4.746;2023-04-24T09:49:14;0.77;;;0.63;;
37495;SDS011;23346;52.088;4.746;2023-04-24T09:51:41;0.77;;;0.77;;
37495;SDS011;23346;52.088;4.746;2023-04-24T09:54:20;0.30;;;0.30;;
37495;SDS011;23346;52.088;4.746;2023-04-24T09:56:47;0.30;;;0.30;;
37495;SDS011;23346;52.088;4.746;2023-04-24T09:59:14;0.40;;;0.40;;
37495;SDS011;23346;52.088;4.746;2023-04-24T10:01:40;0.30;;;0.30;;
37495;SDS011;23346;52.088;4.746;2023-04-24T10:04:16;0.30;;;0.30;;
37495;SDS011;23346;52.088;4.746;2023-04-24T10:06:43;0.30;;;0.30;;
37495;SDS011;23346;52.088;4.746;2023-04-24T10:09:09;0.40;;;0.40;;
37495;SDS011;23346;52.088;4.746;2023-04-24T10:11:37;0.30;;;0.30;;
37495;SDS011;23346;52.088;4.746;2023-04-24T10:14:03;1.37;;;1.23;;
37495;SDS011;23346;52.088;4.746;2023-04-24T10:16:29;0.40;;;0.40;;
37495;SDS011;23346;52.088;4.746;2023-04-24T10:18:55;0.30;;;0.30;;
37495;SDS011;23346;52.088;4.746;2023-04-24T10:21:22;0.30;;;0.30;;
37495;SDS011;23346;52.088;4.746;2023-04-24T10:23:48;0.60;;;0.60;;
37495;SDS011;23346;52.088;4.746;2023-04-24T10:26:15;0.20;;;0.20;;
37495;SDS011;23346;52.088;4.746;2023-04-24T10:28:46;0.20;;;0.20;;
37495;SDS011;23346;52.088;4.746;2023-04-24T10:31:12;0.30;;;0.30;;
37495;SDS011;23346;52.088;4.746;2023-04-24T10:33:38;0.40;;;0.40;;
37495;SDS011;23346;52.088;4.746;2023-04-24T10:36:06;1.07;;;1.00;;
37495;SDS011;23346;52.088;4.746;2023-04-24T10:38:32;0.20;;;0.20;;
37495;SDS011;23346;52.088;4.746;2023-04-24T10:41:09;0.40;;;0.40;;
37495;SDS011;23346;52.088;4.746;2023-04-24T10:43:40;0.40;;;0.40;;
37495;SDS011;23346;52.088;4.746;2023-04-24T10:46:07;0.30;;;0.30;;
37495;SDS011;23346;52.088;4.746;2023-04-24T10:48:35;0.20;;;0.20;;
37495;SDS011;23346;52.088;4.746;2023-04-24T10:51:01;16.03;;;0.90;;
37495;SDS011;23346;52.088;4.746;2023-04-24T10:53:28;0.40;;;0.40;;
37495;SDS011;23346;52.088;4.746;2023-04-24T10:55:58;0.30;;;0.30;;
37495;SDS011;23346;52.088;4.746;2023-04-24T10:58:35;0.27;;;0.27;;
37495;SDS011;23346;52.088;4.746;2023-04-24T11:01:02;0.30;;;0.30;;
37495;SDS011;23346;52.088;4.746;2023-04-24T11:03:29;0.30;;;0.30;;
37495;SDS011;23346;52.088;4.746;2023-04-24T11:06:04;0.30;;;0.30;;
37495;SDS011;23346;52.088;4.746;2023-04-24T11:10:57;2.43;;;1.47;;
37495;SDS011;23346;52.088;4.746;2023-04-24T11:13:27;0.30;;;0.30;;
37495;SDS011;23346;52.088;4.746;2023-04-24T11:16:27;0.30;;;0.30;;
37495;SDS011;23346;52.088;4.746;2023-04-24T11:18:49;0.40;;;0.40;;
37495;SDS011;23346;52.088;4.746;2023-04-24T11:21:18;0.47;;;0.47;;
37495;SDS011;23346;52.088;4.746;2023-04-24T11:23:44;0.60;;;0.60;;
37495;SDS011;23346;52.088;4.746;2023-04-24T11:26:12;0.40;;;0.40;;
37495;SDS011;23346;52.088;4.746;2023-04-24T11:28:48;0.67;;;0.67;;
37495;SDS011;23346;52.088;4.746;2023-04-24T11:34:05;0.40;;;0.40;;
37495;SDS011;23346;52.088;4.746;2023-04-24T11:36:31;0.40;;;0.40;;
37495;SDS011;23346;52.088;4.746;2023-04-24T11:38:57;0.30;;;0.30;;
37495;SDS011;23346;52.088;4.746;2023-04-24T11:41:23;0.30;;;0.30;;
37495;SDS011;23346;52.088;4.746;2023-04-24T11:43:50;0.30;;;0.30;;
37495;SDS011;23346;52.088;4.746;2023-04-24T11:46:17;0.50;;;0.50;;
37495;SDS011;23346;52.088;4.746;2023-04-24T11:48:46;0.57;;;0.57;;
37495;SDS011;23346;52.088;4.746;2023-04-24T11:51:12;0.30;;;0.30;;
37495;SDS011;23346;52.088;4.746;2023-04-24T11:53:38;0.30;;;0.30;;
37495;SDS011;23346;52.088;4.746;2023-04-24T11:56:04;0.77;;;0.77;;
37495;SDS011;23346;52.088;4.746;2023-04-24T11:58:40;11.77;;;2.67;;
37495;SDS011;23346;52.088;4.746;2023-04-24T12:01:06;6.43;;;1.57;;
37495;SDS011;23346;52.088;4.746;2023-04-24T12:03:32;13.10;;;2.23;;
37495;SDS011;23346;52.088;4.746;2023-04-24T12:06:04;7.47;;;2.00;;
37495;SDS011;23346;52.088;4.746;2023-04-24T12:08:32;10.73;;;2.50;;
37495;SDS011;23346;52.088;4.746;2023-04-24T12:10:59;15.83;;;2.57;;
37495;SDS011;23346;52.088;4.746;2023-04-24T12:13:26;8.77;;;2.40;;
37495;SDS011;23346;52.088;4.746;2023-04-24T12:15:52;13.37;;;1.87;;
37495;SDS011;23346;52.088;4.746;2023-04-24T12:18:17;10.33;;;2.37;;
37495;SDS011;23346;52.088;4.746;2023-04-24T12:20:43;7.97;;;1.40;;
37495;SDS011;23346;52.088;4.746;2023-04-24T12:23:09;11.83;;;2.30;;
37495;SDS011;23346;52.088;4.746;2023-04-24T12:25:36;11.83;;;2.27;;
37495;SDS011;23346;52.088;4.746;2023-04-24T12:30:34;7.87;;;1.80;;
37495;SDS011;23346;52.088;4.746;2023-04-24T12:33:02;14.50;;;2.40;;
37495;SDS011;23346;52.088;4.746;2023-04-24T12:35:29;12.47;;;2.00;;
37495;SDS011;23346;52.088;4.746;2023-04-24T12:37:59;7.03;;;1.53;;
37495;SDS011;23346;52.088;4.746;2023-04-24T12:40:30;10.77;;;2.00;;
37495;SDS011;23346;52.088;4.746;2023-04-24T12:42:56;12.23;;;1.95;;
37495;SDS011;23346;52.088;4.746;2023-04-24T12:45:22;6.15;;;2.03;;
37495;SDS011;23346;52.088;4.746;2023-04-24T12:47:50;7.45;;;2.05;;
37495;SDS011;23346;52.088;4.746;2023-04-24T12:50:16;18.20;;;2.17;;
37495;SDS011;23346;52.088;4.746;2023-04-24T12:52:42;13.20;;;2.15;;
37495;SDS011;23346;52.088;4.746;2023-04-24T12:55:08;16.30;;;2.50;;
37495;SDS011;23346;52.088;4.746;2023-04-24T12:57:35;11.80;;;1.77;;
37495;SDS011;23346;52.088;4.746;2023-04-24T13:00:01;9.30;;;1.53;;
37495;SDS011;23346;52.088;4.746;2023-04-24T13:02:29;6.87;;;1.10;;
37495;SDS011;23346;52.088;4.746;2023-04-24T13:04:58;4.20;;;1.70;;
37495;SDS011;23346;52.088;4.746;2023-04-24T13:07:24;6.93;;;1.40;;
37495;SDS011;23346;52.088;4.746;2023-04-24T13:09:51;11.40;;;1.37;;
37495;SDS011;23346;52.088;4.746;2023-04-24T13:12:17;13.10;;;2.27;;
37495;SDS011;23346;52.088;4.746;2023-04-24T13:14:43;6.27;;;1.83;;
37495;SDS011;23346;52.088;4.746;2023-04-24T13:17:10;8.87;;;1.57;;
37495;SDS011;23346;52.088;4.746;2023-04-24T13:19:37;10.27;;;1.60;;
37495;SDS011;23346;52.088;4.746;2023-04-24T13:22:04;6.50;;;1.53;;
37495;SDS011;23346;52.088;4.746;2023-04-24T13:24:30;16.20;;;1.80;;
37495;SDS011;23346;52.088;4.746;2023-04-24T13:26:56;7.97;;;1.90;;
37495;SDS011;23346;52.088;4.746;2023-04-24T13:29:23;10.90;;;2.07;;
37495;SDS011;23346;52.088;4.746;2023-04-24T13:31:52;6.50;;;1.57;;
37495;SDS011;23346;52.088;4.746;2023-04-24T13:34:21;10.67;;;2.20;;
37495;SDS011;23346;52.088;4.746;2023-04-24T13:36:49;7.33;;;1.73;;
37495;SDS011;23346;52.088;4.746;2023-04-24T13:39:15;7.37;;;1.93;;
37495;SDS011;23346;52.088;4.746;2023-04-24T13:41:41;6.30;;;2.27;;
37495;SDS011;23346;52.088;4.746;2023-04-24T13:44:07;10.10;;;1.77;;
37495;SDS011;23346;52.088;4.746;2023-04-24T13:46:34;7.23;;;1.93;;
37495;SDS011;23346;52.088;4.746;2023-04-24T13:49:01;11.10;;;2.03;;
37495;SDS011;23346;52.088;4.746;2023-04-24T13:51:28;8.77;;;2.33;;
37495;SDS011;23346;52.088;4.746;2023-04-24T13:53:54;7.10;;;1.93;;
37495;SDS011;23346;52.088;4.746;2023-04-24T13:56:20;10.50;;;1.97;;
37495;SDS011;23346;52.088;4.746;2023-04-24T13:58:47;8.87;;;2.67;;
37495;SDS011;23346;52.088;4.746;2023-04-24T14:01:13;15.33;;;2.87;;
37495;SDS011;23346;52.088;4.746;2023-04-24T14:03:40;11.27;;;2.80;;
37495;SDS011;23346;52.088;4.746;2023-04-24T14:06:06;7.18;;;2.50;;
37495;SDS011;23346;52.088;4.746;2023-04-24T14:08:32;10.57;;;2.25;;
37495;SDS011;23346;52.088;4.746;2023-04-24T14:10:58;7.05;;;2.60;;
37495;SDS011;23346;52.088;4.746;2023-04-24T14:13:24;12.75;;;2.60;;
37495;SDS011;23346;52.088;4.746;2023-04-24T14:15:50;9.77;;;2.88;;
37495;SDS011;23346;52.088;4.746;2023-04-24T14:18:17;8.77;;;1.67;;
37495;SDS011;23346;52.088;4.746;2023-04-24T14:20:43;10.30;;;1.53;;
37495;SDS011;23346;52.088;4.746;2023-04-24T14:23:09;12.80;;;2.20;;
37495;SDS011;23346;52.088;4.746;2023-04-24T14:25:35;7.97;;;1.43;;
37495;SDS011;23346;52.088;4.746;2023-04-24T14:28:01;7.37;;;1.80;;
37495;SDS011;23346;52.088;4.746;2023-04-24T14:30:27;6.70;;;1.67;;
37495;SDS011;23346;52.088;4.746;2023-04-24T14:32:53;7.90;;;2.50;;
37495;SDS011;23346;52.088;4.746;2023-04-24T14:35:19;7.73;;;2.03;;
37495;SDS011;23346;52.088;4.746;2023-04-24T14:37:45;12.40;;;2.23;;
37495;SDS011;23346;52.088;4.746;2023-04-24T14:40:11;7.67;;;2.37;;
37495;SDS011;23346;52.088;4.746;2023-04-24T14:42:37;13.03;;;3.40;;
37495;SDS011;23346;52.088;4.746;2023-04-24T14:45:03;9.13;;;2.53;;
37495;SDS011;23346;52.088;4.746;2023-04-24T14:47:29;14.87;;;3.00;;
37495;SDS011;23346;52.088;4.746;2023-04-24T14:49:55;14.43;;;3.00;;